Data for 10/08/2017

Time Sea-Level Adjusted Pressure Absolute Pressure Temperature Relative Humidity Dew Point   
(mb) (inHg) (mb) (inHg) (C) (F) (%) (C) (F)
00:05 1012 29.88 842 24.86 3.8 38.8 68 -1.6 29.2
00:10 1012 29.88 842 24.86 3.8 38.8 67 -1.7 28.9
00:15 1012 29.88 842 24.86 3.7 38.7 66 -1.9 28.5
00:20 1012 29.88 842 24.86 3.8 38.8 66 -2 28.5
00:25 1012 29.88 842 24.86 3.8 38.8 67 -1.9 28.6
00:30 1012 29.88 842 24.86 3.8 38.8 66 -1.9 28.5
00:35 1012 29.88 842 24.86 3.7 38.7 67 -1.9 28.7
00:40 1012 29.88 842 24.86 3.7 38.7 67 -1.8 28.7
00:45 1012 29.88 842 24.86 3.7 38.7 68 -1.7 29
00:50 1012 29.88 842 24.86 3.7 38.6 68 -1.7 28.9
00:55 1013 29.91 842 24.86 3.6 38.5 68 -1.7 28.9
01:00 1013 29.91 842 24.86 3.7 38.7 68 -1.7 28.9
01:05 1013 29.91 842 24.86 3.8 38.8 65 -2.2 28.1
01:10 1013 29.91 842 24.86 3.9 39 64 -2.2 28
01:15 1013 29.91 842 24.86 3.9 39.1 64 -2.2 28.1
01:20 1013 29.91 842 24.86 3.9 39.1 65 -2 28.4
01:25 1013 29.91 842 24.86 3.9 39 65 -2.1 28.3
01:30 1013 29.91 842 24.86 3.8 38.9 66 -1.9 28.6
01:35 1013 29.91 842 24.86 3.7 38.7 67 -1.9 28.6
01:40 1013 29.91 842 24.86 3.6 38.5 67 -1.9 28.6
01:45 1013 29.91 842 24.86 3.5 38.3 69 -1.7 28.9
01:50 1013 29.91 842 24.86 3.4 38.2 70 -1.6 29.1
01:55 1013 29.91 842 24.86 3.5 38.2 66 -2.3 27.8
02:00 1013 29.91 842 24.86 3.5 38.4 65 -2.5 27.5
02:05 1013 29.91 842 24.86 3.6 38.5 59 -3.5 25.6
02:10 1013 29.91 842 24.86 3.8 38.9 56 -4.1 24.6
02:15 1013 29.91 842 24.86 3.8 38.9 57 -3.9 24.9
02:20 1013 29.91 842 24.86 3.7 38.7 55 -4.4 24.2
02:25 1013 29.91 842 24.86 3.7 38.7 55 -4.5 23.9
02:30 1013 29.91 842 24.86 3.7 38.7 56 -4.2 24.5
02:35 1013 29.91 842 24.86 3.6 38.5 58 -3.8 25.1
02:40 1012 29.88 842 24.86 3.5 38.4 59 -3.7 25.3
02:45 1012 29.88 842 24.86 3.6 38.5 59 -3.6 25.4
02:50 1012 29.88 842 24.86 3.4 38.2 59 -3.9 25
02:55 1012 29.88 842 24.86 3.4 38.2 57 -4.2 24.4
03:00 1012 29.88 842 24.86 3.5 38.3 61 -3.3 26.1
03:05 1012 29.88 842 24.86 3.3 37.9 65 -2.6 27.4
03:10 1012 29.88 842 24.86 2.9 37.2 67 -2.7 27.1
03:15 1012 29.88 841 24.83 2.8 37 67 -2.7 27.2
03:20 1012 29.88 841 24.83 2.8 37 67 -2.8 27
03:25 1012 29.88 841 24.83 2.7 36.9 68 -2.5 27.5
03:30 1012 29.88 841 24.83 2.6 36.7 68 -2.7 27.1
03:35 1012 29.88 841 24.83 2.6 36.7 69 -2.6 27.3
03:40 1012 29.88 842 24.86 2.5 36.5 69 -2.6 27.4
03:45 1012 29.88 842 24.86 2.5 36.5 69 -2.5 27.4
03:50 1012 29.88 841 24.83 2.5 36.5 68 -2.7 27.1
03:55 1012 29.88 841 24.83 2.4 36.4 69 -2.6 27.2
04:00 1012 29.88 841 24.83 2.3 36.2 70 -2.5 27.4
04:05 1012 29.88 841 24.83 2.1 35.7 73 -2.3 27.8
04:10 1012 29.88 841 24.83 1.8 35.2 73 -2.5 27.5
04:15 1012 29.88 841 24.83 1.7 35 74 -2.5 27.5
04:20 1012 29.88 841 24.83 1.6 34.9 73 -2.6 27.2
04:25 1012 29.88 841 24.83 1.5 34.8 73 -2.7 27.1
04:30 1012 29.88 841 24.83 1.4 34.5 74 -2.7 27.1
04:35 1012 29.88 841 24.83 1.4 34.5 74 -2.8 26.9
04:40 1012 29.88 841 24.83 1.4 34.4 73 -2.9 26.8
04:45 1012 29.88 841 24.83 1.4 34.4 74 -2.8 27
04:50 1012 29.88 842 24.86 1.2 34.2 75 -2.8 27
04:55 1012 29.88 842 24.86 0.9 33.7 76 -2.8 27
05:00 1012 29.88 842 24.86 0.8 33.4 76 -3 26.5
05:05 1013 29.91 842 24.86 0.9 33.5 74 -3.2 26.2
05:10 1013 29.91 842 24.86 0.9 33.5 74 -3.3 26.1
05:15 1012 29.88 842 24.86 0.8 33.5 74 -3.3 26.1
05:20 1013 29.91 842 24.86 0.9 33.5 75 -3.1 26.4
05:25 1013 29.91 842 24.86 0.7 33.2 76 -3.1 26.4
05:30 1013 29.91 842 24.86 0.8 33.4 74 -3.3 26
05:35 1013 29.91 842 24.86 0.7 33.2 75 -3.3 26
05:40 1013 29.91 842 24.86 0.6 33.1 75 -3.3 26.1
05:45 1013 29.91 842 24.86 0.6 33 76 -3.3 26.1
05:50 1013 29.91 842 24.86 0.2 32.4 77 -3.3 26.1
05:55 1013 29.91 842 24.86 0.1 32.1 77 -3.4 25.8
06:00 1013 29.91 842 24.86 0 32.1 78 -3.4 25.9
06:05 1013 29.91 842 24.86 0 32 76 -3.6 25.4
06:10 1013 29.91 842 24.86 0.2 32.4 74 -3.9 25
06:15 1013 29.91 842 24.86 0.4 32.7 73 -3.9 24.9
06:20 1013 29.91 842 24.86 0.4 32.6 75 -3.6 25.6
06:25 1013 29.91 842 24.86 0 32 77 -3.5 25.7
06:30 1013 29.91 842 24.86 -0.4 31.3 79 -3.6 25.5
06:35 1013 29.91 842 24.86 -0.4 31.2 76 -4.1 24.6
06:40 1013 29.91 842 24.86 0 32 73 -4.3 24.3
06:45 1013 29.91 842 24.86 0.3 32.6 72 -4.2 24.5
06:50 1013 29.91 842 24.86 0.2 32.4 74 -3.9 25
06:55 1013 29.91 842 24.86 -0 32 74 -4.1 24.7
07:00 1013 29.91 842 24.86 0.1 32.2 71 -4.5 24
07:05 1013 29.91 842 24.86 0.4 32.7 70 -4.4 24
07:10 1013 29.91 842 24.86 0.6 33 71 -4.1 24.7
07:15 1013 29.91 842 24.86 0.4 32.8 73 -4 24.9
07:20 1013 29.91 842 24.86 0.1 32.3 73 -4.2 24.4
07:25 1013 29.91 843 24.89 0.4 32.7 71 -4.2 24.4
07:30 1013 29.91 843 24.89 0.6 33.2 68 -4.6 23.7
07:35 1014 29.94 843 24.89 1.2 34.1 65 -4.6 23.7
07:40 1014 29.94 843 24.89 1.8 35.3 64 -4.3 24.2
07:45 1013 29.91 843 24.89 2.1 35.9 64 -4 24.9
07:50 1014 29.94 843 24.89 2.1 35.8 65 -3.8 25.2
07:55 1014 29.94 843 24.89 2.2 36 64 -3.8 25.2
08:00 1014 29.94 843 24.89 2.2 36 65 -3.6 25.5
08:05 1014 29.94 843 24.89 2.4 36.4 64 -3.6 25.5
08:10 1014 29.94 843 24.89 2.9 37.3 61 -3.8 25.2
08:15 1014 29.94 843 24.89 3.1 37.6 62 -3.5 25.7
08:20 1014 29.94 843 24.89 3.2 37.8 61 -3.5 25.7
08:25 1014 29.94 843 24.89 3.7 38.6 58 -3.9 25
08:30 1014 29.94 843 24.89 4.3 39.8 55 -3.9 25
08:35 1014 29.94 843 24.89 5.1 41.1 52 -4 24.7
08:40 1014 29.94 844 24.92 5.1 41.1 55 -3.3 26.1
08:45 1014 29.94 844 24.92 4.1 39.3 56 -3.9 25
08:50 1014 29.94 844 24.92 4.6 40.3 54 -4 24.8
08:55 1015 29.97 844 24.92 4.9 40.9 52 -4 24.8
09:00 1015 29.97 844 24.92 5.1 41.1 52 -4 24.7
09:05 1015 29.97 844 24.92 5.2 41.4 52 -4 24.9
09:10 1015 29.97 844 24.92 5 41 52 -3.9 25
09:15 1015 29.97 844 24.92 5.2 41.4 51 -4 24.8
09:20 1015 29.97 844 24.92 5.9 42.6 49 -3.9 25
09:25 1015 29.97 844 24.92 5.5 41.9 49 -4.3 24.3
09:30 1015 29.97 844 24.92 5 40.9 52 -4.2 24.4
09:35 1015 29.97 844 24.92 5.4 41.7 49 -4.6 23.7
09:40 1015 29.97 844 24.92 6.2 43.2 45 -4.9 23.2
09:45 1015 29.97 844 24.92 6.6 43.9 45 -4.6 23.7
09:50 1015 29.97 844 24.92 6.1 42.9 47 -4.3 24.2
09:55 1015 29.97 844 24.92 5 41 48 -5.1 22.7
10:00 1015 29.97 844 24.92 4.6 40.3 49 -5.1 22.8
10:05 1015 29.97 844 24.92 4.6 40.3 50 -4.9 23.3
10:10 1015 29.97 844 24.92 5.1 41.1 48 -4.9 23.1
10:15 1015 29.97 844 24.92 5.2 41.3 47 -5.3 22.5
10:20 1015 29.97 845 24.95 5.2 41.4 47 -5.1 22.8
10:25 1015 29.97 845 24.95 5.4 41.7 46 -5.2 22.6
10:30 1015 29.97 845 24.95 5.4 41.7 45 -5.5 22.1
10:35 1015 29.97 845 24.95 5.7 42.3 45 -5.4 22.2
10:40 1015 29.97 845 24.95 5.6 42 44 -5.6 21.8
10:45 1016 30 845 24.95 5.5 41.9 45 -5.5 22.1
10:50 1016 30 845 24.95 5.4 41.7 45 -5.7 21.8
10:55 1016 30 845 24.95 5.3 41.5 46 -5.5 22.1
11:00 1016 30 845 24.95 5.3 41.5 45 -5.8 21.5
11:05 1016 30 845 24.95 5.7 42.3 43 -5.8 21.6
11:10 1016 30 845 24.95 6 42.9 42 -6 21.1
11:15 1016 30 845 24.95 6.4 43.5 41 -5.8 21.6
11:20 1016 30 845 24.95 6.1 42.9 44 -5.3 22.4
11:25 1016 30 845 24.95 5.7 42.3 44 -5.7 21.8
11:30 1016 30 845 24.95 5.8 42.5 44 -5.6 21.9
11:35 1016 30 845 24.95 6 42.7 42 -6.1 21
11:40 1016 30 845 24.95 6.6 43.9 40 -6.2 20.8
11:45 1016 30 845 24.95 6.8 44.2 40 -5.7 21.7
11:50 1016 30 845 24.95 6.6 43.9 40 -6.2 20.9
11:55 1016 30 845 24.95 7 44.6 39 -6.1 21.1
12:00 1016 30 845 24.95 6.9 44.5 39 -6 21.1
12:05 1016 30 845 24.95 7 44.6 40 -5.8 21.6
12:10 1016 30 846 24.98 6.6 44 40 -5.9 21.4
12:15 1016 30 846 24.98 6.3 43.3 40 -6.3 20.7
12:20 1016 30 846 24.98 6.3 43.3 40 -6.5 20.4
12:25 1016 30 845 24.95 6.1 43 40 -6.4 20.4
12:30 1016 30 845 24.95 6.2 43.2 38 -7 19.5
12:35 1016 30 845 24.95 7.4 45.4 34 -7.3 18.8
12:40 1016 30 846 24.98 8.5 47.3 32 -7.1 19.2
12:45 1016 30 846 24.98 8.7 47.7 32 -7 19.3
12:50 1017 30.03 846 24.98 8.7 47.6 33 -6.7 19.9
12:55 1017 30.03 846 24.98 7.1 44.7 48 -3.2 26.2
13:00 1017 30.03 846 24.98 5.3 41.5 53 -3.6 25.6
13:05 1017 30.03 846 24.98 4.9 40.9 55 -3.3 26
13:10 1017 30.03 846 24.98 4.6 40.2 57 -3.2 26.2
13:15 1017 30.03 846 24.98 4 39.3 63 -2.4 27.7
13:20 1017 30.03 846 24.98 4.1 39.4 59 -3.1 26.4
13:25 1017 30.03 847 25.01 4.1 39.4 62 -2.5 27.6
13:30 1017 30.03 847 25.01 3.9 39 65 -2.2 28
13:35 1018 30.06 847 25.01 3.7 38.7 66 -2 28.3
13:40 1018 30.06 847 25.01 3.5 38.3 70 -1.4 29.5
13:45 1018 30.06 847 25.01 3.1 37.6 72 -1.4 29.5
13:50 1018 30.06 847 25.01 2.8 37.1 74 -1.3 29.7
13:55 1018 30.06 847 25.01 3.1 37.5 74 -1.1 30
14:00 1018 30.06 847 25.01 2.9 37.2 77 -0.8 30.6
14:05 1018 30.06 847 25.01 2.6 36.6 80 -0.5 31
14:10 1018 30.06 847 25.01 1.9 35.4 84 -0.5 31.2
14:15 1018 30.06 847 25.01 1.6 34.8 87 -0.4 31.2
14:20 1018 30.06 847 25.01 1.8 35.3 85 -0.4 31.2
14:25 1018 30.06 847 25.01 1.8 35.3 84 -0.6 31
14:30 1018 30.06 847 25.01 1.7 35.1 83 -0.8 30.5
14:35 1018 30.06 847 25.01 1.7 35.1 83 -0.8 30.6
14:40 1018 30.06 848 25.04 1.8 35.2 81 -1.1 30.1
14:45 1018 30.06 848 25.04 1.9 35.4 82 -0.8 30.5
14:50 1018 30.06 848 25.04 1.9 35.4 83 -0.7 30.7
14:55 1019 30.09 848 25.04 2 35.7 83 -0.6 30.9
15:00 1019 30.09 848 25.04 2.4 36.3 78 -1.1 30
15:05 1019 30.09 848 25.04 2.6 36.8 77 -0.9 30.3
15:10 1019 30.09 848 25.04 2.8 37.1 76 -0.9 30.3
15:15 1019 30.09 848 25.04 3 37.4 77 -0.7 30.8
15:20 1019 30.09 849 25.07 2.6 36.8 77 -0.9 30.4
15:25 1019 30.09 849 25.07 2.2 36 79 -1 30.2
15:30 1020 30.12 849 25.07 1.8 35.2 83 -0.7 30.7
15:35 1020 30.12 849 25.07 1.7 35.1 83 -0.9 30.3
15:40 1019 30.09 849 25.07 1.7 35.1 83 -0.8 30.6
15:45 1019 30.09 849 25.07 2 35.5 78 -1.4 29.4
15:50 1020 30.12 849 25.07 2.2 36 77 -1.4 29.5
15:55 1020 30.12 849 25.07 2.2 36 79 -1.1 30.1
16:00 1020 30.12 849 25.07 1.9 35.5 81 -1 30.1
16:05 1020 30.12 849 25.07 2 35.6 80 -1.1 30
16:10 1020 30.12 849 25.07 2 35.5 81 -1 30.1
16:15 1020 30.12 849 25.07 1.8 35.2 81 -1.2 29.9
16:20 1020 30.12 849 25.07 1.7 35 80 -1.4 29.4
16:25 1020 30.12 849 25.07 1.5 34.7 80 -1.5 29.3
16:30 1020 30.12 850 25.1 2 35.7 76 -1.7 29
16:35 1020 30.12 850 25.1 2.4 36.4 76 -1.3 29.7
16:40 1021 30.15 850 25.1 2.1 35.7 78 -1.4 29.5
16:45 1021 30.15 850 25.1 2.1 35.7 77 -1.6 29.2
16:50 1021 30.15 850 25.1 1.9 35.4 79 -1.3 29.6
16:55 1021 30.15 850 25.1 1.8 35.3 80 -1.2 29.8
17:00 1021 30.15 850 25.1 1.9 35.4 80 -1.2 29.8
17:05 1021 30.15 850 25.1 1.8 35.3 80 -1.3 29.6
17:10 1021 30.15 850 25.1 1.8 35.3 81 -1.1 29.9
17:15 1021 30.15 850 25.1 1.8 35.3 81 -1.1 30
17:20 1021 30.15 850 25.1 2.1 35.8 80 -1 30.3
17:25 1021 30.15 850 25.1 1.9 35.4 82 -0.9 30.3
17:30 1021 30.15 850 25.1 1.8 35.3 82 -0.9 30.3
17:35 1021 30.15 851 25.13 1.8 35.3 81 -1.1 30
17:40 1021 30.15 851 25.13 1.7 35.1 81 -1.3 29.7
17:45 1021 30.15 851 25.13 1.6 34.9 81 -1.4 29.5
17:50 1022 30.18 851 25.13 1.6 34.9 81 -1.3 29.7
17:55 1022 30.18 851 25.13 1.6 34.9 82 -1.2 29.9
18:00 1022 30.18 851 25.13 1.5 34.7 83 -1.1 30
18:05 1022 30.18 851 25.13 1.4 34.5 83 -1.2 29.9
18:10 1022 30.18 851 25.13 1.4 34.6 83 -1.2 29.9
18:15 1022 30.18 851 25.13 1.5 34.6 83 -1.1 30
18:20 1022 30.18 851 25.13 1.5 34.6 83 -1.2 29.9
18:25 1022 30.18 851 25.13 1.4 34.6 83 -1.1 30
18:30 1022 30.18 851 25.13 1.3 34.4 84 -1.1 30.1
18:35 1022 30.18 851 25.13 1.4 34.4 83 -1.2 29.9
18:40 1022 30.18 852 25.16 1.3 34.4 83 -1.2 29.8
18:45 1022 30.18 852 25.16 1.3 34.4 83 -1.2 29.9
18:50 1023 30.21 852 25.16 1.4 34.5 83 -1.2 29.9
18:55 1023 30.21 852 25.16 1.3 34.4 83 -1.2 29.8
19:00 1022 30.18 852 25.16 1.3 34.3 84 -1.2 29.9
19:05 1022 30.18 852 25.16 1.2 34.2 83 -1.4 29.4
19:10 1023 30.21 852 25.16 1.2 34.2 83 -1.3 29.6
19:15 1023 30.21 852 25.16 1 33.9 85 -1.2 29.9
19:20 1023 30.21 852 25.16 1 33.7 86 -1.2 29.9
19:25 1023 30.21 852 25.16 0.9 33.7 86 -1.2 29.9
19:30 1023 30.21 852 25.16 1 33.8 86 -1.1 30
19:35 1023 30.21 852 25.16 1.1 33.9 86 -1.1 30.1
19:40 1023 30.21 852 25.16 1.2 34.1 84 -1.3 29.7
19:45 1023 30.21 852 25.16 1.1 34 84 -1.3 29.6
19:50 1023 30.21 852 25.16 1.2 34.1 82 -1.6 29.1
19:55 1023 30.21 852 25.16 1.3 34.4 81 -1.5 29.3
20:00 1023 30.21 852 25.16 1.3 34.4 81 -1.5 29.2
20:05 1023 30.21 852 25.16 1.3 34.4 81 -1.6 29.2
20:10 1023 30.21 853 25.19 1.4 34.5 80 -1.8 28.8
20:15 1023 30.21 853 25.19 1.5 34.7 79 -1.8 28.7
20:20 1023 30.21 853 25.19 1.6 34.8 79 -1.8 28.8
20:25 1023 30.21 853 25.19 1.5 34.7 80 -1.6 29.2
20:30 1023 30.21 853 25.19 1.5 34.6 80 -1.6 29.1
20:35 1024 30.24 853 25.19 1.4 34.6 80 -1.6 29.1
20:40 1024 30.24 853 25.19 1.5 34.7 80 -1.6 29.1
20:45 1023 30.21 853 25.19 1.5 34.7 79 -1.7 28.9
20:50 1023 30.21 853 25.19 1.4 34.6 80 -1.7 29
20:55 1024 30.24 853 25.19 1.4 34.5 80 -1.6 29.1
21:00 1024 30.24 853 25.19 1.5 34.6 80 -1.5 29.2
21:05 1024 30.24 853 25.19 1.5 34.8 79 -1.7 28.9
21:10 1024 30.24 853 25.19 1.6 34.9 78 -1.9 28.7
21:15 1024 30.24 853 25.19 1.6 34.9 78 -1.9 28.7
21:20 1024 30.24 853 25.19 1.6 34.9 78 -1.9 28.6
21:25 1024 30.24 853 25.19 1.5 34.7 78 -2 28.4
21:30 1024 30.24 853 25.19 1.4 34.5 77 -2.2 28.1
21:35 1024 30.24 853 25.19 1.4 34.5 77 -2.2 28
21:40 1024 30.24 853 25.19 1.4 34.5 78 -2.1 28.2
21:45 1024 30.24 853 25.19 1.4 34.6 77 -2.1 28.2
21:50 1024 30.24 853 25.19 1.5 34.6 77 -2.2 28.1
21:55 1024 30.24 853 25.19 1.5 34.6 76 -2.3 27.9
22:00 1024 30.24 853 25.19 1.4 34.5 79 -1.8 28.7
22:05 1024 30.24 853 25.19 1.2 34.2 80 -1.9 28.6
22:10 1024 30.24 853 25.19 1.2 34.1 80 -1.8 28.7
22:15 1024 30.24 853 25.19 1.2 34.1 81 -1.7 28.9
22:20 1024 30.24 853 25.19 1.2 34.1 82 -1.7 29
22:25 1024 30.24 853 25.19 1 33.8 81 -1.9 28.6
22:30 1024 30.24 853 25.19 1 33.8 81 -1.8 28.7
22:35 1024 30.24 853 25.19 1.1 34 79 -2.2 28.1
22:40 1024 30.24 854 25.22 1.2 34.2 79 -2 28.5
22:45 1024 30.24 854 25.22 1.1 34 79 -2.2 28
22:50 1025 30.27 854 25.22 1.2 34.2 77 -2.3 27.8
22:55 1024 30.24 854 25.22 1.3 34.3 77 -2.3 27.9
23:00 1025 30.27 854 25.22 1.3 34.4 77 -2.2 28
23:05 1025 30.27 854 25.22 1.3 34.4 77 -2.3 27.9
23:10 1025 30.27 854 25.22 1.2 34.2 78 -2.2 28.1
23:15 1025 30.27 854 25.22 1.1 34 78 -2.2 28
23:20 1025 30.27 854 25.22 1 33.9 80 -2 28.5
23:25 1025 30.27 854 25.22 1 33.8 81 -1.9 28.5
23:30 1025 30.27 854 25.22 1 33.7 80 -2 28.3
23:35 1025 30.27 854 25.22 1 33.8 80 -2.1 28.3
23:40 1025 30.27 854 25.22 1 33.8 81 -1.9 28.5
23:45 1025 30.27 854 25.22 1 33.8 80 -2 28.3
23:50 1025 30.27 854 25.22 1 33.8 79 -2.2 28.1
23:55 1025 30.27 854 25.22 1.1 33.9 78 -2.3 27.8
24:00 1025 30.27 854 25.22 1.2 34.2 79 -2.1 28.2